sensor_id;sensor_type;location;lat;lon;timestamp;temperature;humidity
46754;DHT22;32500;50.620;3.400;2023-04-03T00:00:53;14.30;74.50
46754;DHT22;32500;50.620;3.400;2023-04-03T00:03:19;14.30;73.80
46754;DHT22;32500;50.620;3.400;2023-04-03T00:05:45;14.20;74.50
46754;DHT22;32500;50.620;3.400;2023-04-03T00:08:11;14.20;74.20
46754;DHT22;32500;50.620;3.400;2023-04-03T00:10:37;14.20;74.10
46754;DHT22;32500;50.620;3.400;2023-04-03T00:13:03;14.20;74.30
46754;DHT22;32500;50.620;3.400;2023-04-03T00:15:28;14.20;74.40
46754;DHT22;32500;50.620;3.400;2023-04-03T00:17:54;14.10;74.20
46754;DHT22;32500;50.620;3.400;2023-04-03T00:20:20;14.10;74.60
46754;DHT22;32500;50.620;3.400;2023-04-03T00:22:46;14.20;74.30
46754;DHT22;32500;50.620;3.400;2023-04-03T00:25:11;14.20;73.60
46754;DHT22;32500;50.620;3.400;2023-04-03T00:27:37;14.10;74.00
46754;DHT22;32500;50.620;3.400;2023-04-03T00:30:03;14.10;74.00
46754;DHT22;32500;50.620;3.400;2023-04-03T00:32:29;14.10;74.50
46754;DHT22;32500;50.620;3.400;2023-04-03T00:34:54;14.10;74.30
46754;DHT22;32500;50.620;3.400;2023-04-03T00:37:20;14.00;74.30
46754;DHT22;32500;50.620;3.400;2023-04-03T00:39:45;14.10;74.40
46754;DHT22;32500;50.620;3.400;2023-04-03T00:42:11;14.00;74.00
46754;DHT22;32500;50.620;3.400;2023-04-03T00:47:02;14.00;74.30
46754;DHT22;32500;50.620;3.400;2023-04-03T00:49:28;14.00;74.00
46754;DHT22;32500;50.620;3.400;2023-04-03T00:51:54;14.00;73.80
46754;DHT22;32500;50.620;3.400;2023-04-03T00:54:20;14.00;73.80
46754;DHT22;32500;50.620;3.400;2023-04-03T00:56:46;13.90;74.30
46754;DHT22;32500;50.620;3.400;2023-04-03T00:59:21;13.90;74.10
46754;DHT22;32500;50.620;3.400;2023-04-03T01:01:48;13.90;73.80
46754;DHT22;32500;50.620;3.400;2023-04-03T01:09:35;13.90;73.80
46754;DHT22;32500;50.620;3.400;2023-04-03T01:14:39;13.90;73.80
46754;DHT22;32500;50.620;3.400;2023-04-03T01:17:22;13.90;73.90
46754;DHT22;32500;50.620;3.400;2023-04-03T01:19:50;13.80;74.20
46754;DHT22;32500;50.620;3.400;2023-04-03T01:22:22;13.90;74.00
46754;DHT22;32500;50.620;3.400;2023-04-03T01:24:49;13.90;74.10
46754;DHT22;32500;50.620;3.400;2023-04-03T01:27:16;13.80;74.00
46754;DHT22;32500;50.620;3.400;2023-04-03T01:29:42;13.80;74.00
46754;DHT22;32500;50.620;3.400;2023-04-03T01:32:08;13.80;73.90
46754;DHT22;32500;50.620;3.400;2023-04-03T01:34:34;13.80;74.30
46754;DHT22;32500;50.620;3.400;2023-04-03T01:37:00;13.70;74.10
46754;DHT22;32500;50.620;3.400;2023-04-03T01:39:25;13.70;73.80
46754;DHT22;32500;50.620;3.400;2023-04-03T01:41:51;13.70;74.10
46754;DHT22;32500;50.620;3.400;2023-04-03T01:44:17;13.70;74.60
46754;DHT22;32500;50.620;3.400;2023-04-03T01:46:43;13.70;74.40
46754;DHT22;32500;50.620;3.400;2023-04-03T01:49:08;13.70;74.10
46754;DHT22;32500;50.620;3.400;2023-04-03T01:51:34;13.70;74.00
46754;DHT22;32500;50.620;3.400;2023-04-03T01:54:00;13.80;73.60
46754;DHT22;32500;50.620;3.400;2023-04-03T01:56:25;13.70;74.30
46754;DHT22;32500;50.620;3.400;2023-04-03T01:58:52;13.70;73.80
46754;DHT22;32500;50.620;3.400;2023-04-03T02:01:17;13.60;74.10
46754;DHT22;32500;50.620;3.400;2023-04-03T02:03:43;13.70;73.90
46754;DHT22;32500;50.620;3.400;2023-04-03T02:06:08;13.60;73.70
46754;DHT22;32500;50.620;3.400;2023-04-03T02:08:34;13.60;74.40
46754;DHT22;32500;50.620;3.400;2023-04-03T02:10:59;13.60;74.00
46754;DHT22;32500;50.620;3.400;2023-04-03T02:13:25;13.60;73.80
46754;DHT22;32500;50.620;3.400;2023-04-03T02:15:51;13.60;74.20
46754;DHT22;32500;50.620;3.400;2023-04-03T02:18:16;13.60;74.10
46754;DHT22;32500;50.620;3.400;2023-04-03T02:20:42;13.60;73.90
46754;DHT22;32500;50.620;3.400;2023-04-03T02:23:07;13.60;74.10
46754;DHT22;32500;50.620;3.400;2023-04-03T02:25:33;13.60;74.10
46754;DHT22;32500;50.620;3.400;2023-04-03T02:27:59;13.60;73.80
46754;DHT22;32500;50.620;3.400;2023-04-03T02:30:24;13.50;74.20
46754;DHT22;32500;50.620;3.400;2023-04-03T02:32:50;13.60;74.10
46754;DHT22;32500;50.620;3.400;2023-04-03T02:35:15;13.60;74.30
46754;DHT22;32500;50.620;3.400;2023-04-03T02:37:41;13.50;74.30
46754;DHT22;32500;50.620;3.400;2023-04-03T02:40:07;13.50;74.30
46754;DHT22;32500;50.620;3.400;2023-04-03T02:42:32;13.50;74.20
46754;DHT22;32500;50.620;3.400;2023-04-03T02:44:58;13.50;74.50
46754;DHT22;32500;50.620;3.400;2023-04-03T02:47:26;13.40;74.10
46754;DHT22;32500;50.620;3.400;2023-04-03T02:49:51;13.50;74.40
46754;DHT22;32500;50.620;3.400;2023-04-03T02:52:18;13.50;74.30
46754;DHT22;32500;50.620;3.400;2023-04-03T02:54:43;13.50;74.20
46754;DHT22;32500;50.620;3.400;2023-04-03T02:57:09;13.50;74.10
46754;DHT22;32500;50.620;3.400;2023-04-03T02:59:35;13.50;73.90
46754;DHT22;32500;50.620;3.400;2023-04-03T03:02:01;13.40;74.10
46754;DHT22;32500;50.620;3.400;2023-04-03T03:04:26;13.40;74.40
46754;DHT22;32500;50.620;3.400;2023-04-03T03:06:52;13.40;74.10
46754;DHT22;32500;50.620;3.400;2023-04-03T03:09:17;13.40;73.80
46754;DHT22;32500;50.620;3.400;2023-04-03T03:11:43;13.40;74.10
46754;DHT22;32500;50.620;3.400;2023-04-03T03:14:09;13.30;74.20
46754;DHT22;32500;50.620;3.400;2023-04-03T03:16:34;13.30;74.20
46754;DHT22;32500;50.620;3.400;2023-04-03T03:19:00;13.30;74.30
46754;DHT22;32500;50.620;3.400;2023-04-03T03:21:25;13.30;74.60
46754;DHT22;32500;50.620;3.400;2023-04-03T03:23:51;13.30;74.30
46754;DHT22;32500;50.620;3.400;2023-04-03T03:26:16;13.20;74.60
46754;DHT22;32500;50.620;3.400;2023-04-03T03:28:42;13.30;74.20
46754;DHT22;32500;50.620;3.400;2023-04-03T03:31:08;13.30;74.30
46754;DHT22;32500;50.620;3.400;2023-04-03T03:33:34;13.30;73.80
46754;DHT22;32500;50.620;3.400;2023-04-03T03:35:59;13.20;74.50
46754;DHT22;32500;50.620;3.400;2023-04-03T03:38:25;13.20;74.30
46754;DHT22;32500;50.620;3.400;2023-04-03T03:40:51;13.20;74.20
46754;DHT22;32500;50.620;3.400;2023-04-03T03:43:17;13.20;74.30
46754;DHT22;32500;50.620;3.400;2023-04-03T03:45:43;13.20;74.10
46754;DHT22;32500;50.620;3.400;2023-04-03T03:48:09;13.10;74.20
46754;DHT22;32500;50.620;3.400;2023-04-03T03:50:34;13.10;74.50
46754;DHT22;32500;50.620;3.400;2023-04-03T03:53:00;13.10;74.40
46754;DHT22;32500;50.620;3.400;2023-04-03T03:55:26;13.10;74.40
46754;DHT22;32500;50.620;3.400;2023-04-03T03:57:51;13.10;74.20
46754;DHT22;32500;50.620;3.400;2023-04-03T04:00:17;13.10;74.30
46754;DHT22;32500;50.620;3.400;2023-04-03T04:02:43;13.10;74.10
46754;DHT22;32500;50.620;3.400;2023-04-03T04:05:08;13.10;74.40
46754;DHT22;32500;50.620;3.400;2023-04-03T04:07:34;13.00;74.30
46754;DHT22;32500;50.620;3.400;2023-04-03T04:10:00;13.10;74.30
46754;DHT22;32500;50.620;3.400;2023-04-03T04:12:25;13.10;74.00
46754;DHT22;32500;50.620;3.400;2023-04-03T04:14:51;13.00;74.00
46754;DHT22;32500;50.620;3.400;2023-04-03T04:17:19;13.00;73.90
46754;DHT22;32500;50.620;3.400;2023-04-03T04:19:45;13.00;74.00
46754;DHT22;32500;50.620;3.400;2023-04-03T04:22:10;13.10;74.00
46754;DHT22;32500;50.620;3.400;2023-04-03T04:24:36;13.10;73.80
46754;DHT22;32500;50.620;3.400;2023-04-03T04:27:02;13.00;74.10
46754;DHT22;32500;50.620;3.400;2023-04-03T04:29:27;13.10;73.70
46754;DHT22;32500;50.620;3.400;2023-04-03T04:31:53;13.00;73.70
46754;DHT22;32500;50.620;3.400;2023-04-03T04:34:18;13.00;74.20
46754;DHT22;32500;50.620;3.400;2023-04-03T04:36:44;13.00;73.90
46754;DHT22;32500;50.620;3.400;2023-04-03T04:39:09;12.90;74.30
46754;DHT22;32500;50.620;3.400;2023-04-03T04:41:35;13.00;73.90
46754;DHT22;32500;50.620;3.400;2023-04-03T04:44:01;13.00;73.90
46754;DHT22;32500;50.620;3.400;2023-04-03T04:46:26;13.00;73.90
46754;DHT22;32500;50.620;3.400;2023-04-03T04:48:52;12.90;74.10
46754;DHT22;32500;50.620;3.400;2023-04-03T04:51:18;12.90;74.20
46754;DHT22;32500;50.620;3.400;2023-04-03T04:53:43;12.90;74.30
46754;DHT22;32500;50.620;3.400;2023-04-03T04:56:09;12.90;74.30
46754;DHT22;32500;50.620;3.400;2023-04-03T04:58:35;12.90;73.80
46754;DHT22;32500;50.620;3.400;2023-04-03T05:01:01;12.90;74.20
46754;DHT22;32500;50.620;3.400;2023-04-03T05:03:27;12.80;74.40
46754;DHT22;32500;50.620;3.400;2023-04-03T05:05:53;12.80;74.30
46754;DHT22;32500;50.620;3.400;2023-04-03T05:08:19;12.80;74.20
46754;DHT22;32500;50.620;3.400;2023-04-03T05:10:44;12.70;74.10
46754;DHT22;32500;50.620;3.400;2023-04-03T05:13:10;12.70;74.50
46754;DHT22;32500;50.620;3.400;2023-04-03T05:15:36;12.80;74.70
46754;DHT22;32500;50.620;3.400;2023-04-03T05:18:01;12.80;75.20
46754;DHT22;32500;50.620;3.400;2023-04-03T05:20:27;12.80;74.90
46754;DHT22;32500;50.620;3.400;2023-04-03T05:22:52;12.80;75.20
46754;DHT22;32500;50.620;3.400;2023-04-03T05:25:18;12.80;74.70
46754;DHT22;32500;50.620;3.400;2023-04-03T05:27:43;12.90;74.30
46754;DHT22;32500;50.620;3.400;2023-04-03T05:30:09;12.80;74.50
46754;DHT22;32500;50.620;3.400;2023-04-03T05:32:35;12.70;74.00
46754;DHT22;32500;50.620;3.400;2023-04-03T05:35:00;12.60;75.20
46754;DHT22;32500;50.620;3.400;2023-04-03T05:37:26;12.60;74.70
46754;DHT22;32500;50.620;3.400;2023-04-03T05:39:51;12.70;74.90
46754;DHT22;32500;50.620;3.400;2023-04-03T05:42:17;12.70;73.90
46754;DHT22;32500;50.620;3.400;2023-04-03T05:44:42;12.70;74.20
46754;DHT22;32500;50.620;3.400;2023-04-03T05:47:09;12.60;74.80
46754;DHT22;32500;50.620;3.400;2023-04-03T05:49:35;12.60;74.90
46754;DHT22;32500;50.620;3.400;2023-04-03T05:52:01;12.60;74.90
46754;DHT22;32500;50.620;3.400;2023-04-03T05:54:27;12.70;75.20
46754;DHT22;32500;50.620;3.400;2023-04-03T05:56:53;12.70;74.40
46754;DHT22;32500;50.620;3.400;2023-04-03T05:59:19;12.70;74.70
46754;DHT22;32500;50.620;3.400;2023-04-03T06:01:45;12.60;74.60
46754;DHT22;32500;50.620;3.400;2023-04-03T06:04:11;12.70;74.60
46754;DHT22;32500;50.620;3.400;2023-04-03T06:06:53;12.70;74.90
46754;DHT22;32500;50.620;3.400;2023-04-03T06:09:20;12.70;74.10
46754;DHT22;32500;50.620;3.400;2023-04-03T06:11:46;12.70;74.30
46754;DHT22;32500;50.620;3.400;2023-04-03T06:14:12;12.80;74.30
46754;DHT22;32500;50.620;3.400;2023-04-03T06:16:37;12.70;74.40
46754;DHT22;32500;50.620;3.400;2023-04-03T06:19:04;12.60;74.00
46754;DHT22;32500;50.620;3.400;2023-04-03T06:21:31;12.60;74.00
46754;DHT22;32500;50.620;3.400;2023-04-03T06:23:56;12.60;74.00
46754;DHT22;32500;50.620;3.400;2023-04-03T06:26:22;12.70;74.20
46754;DHT22;32500;50.620;3.400;2023-04-03T06:28:47;12.70;74.20
46754;DHT22;32500;50.620;3.400;2023-04-03T06:31:13;12.60;74.80
46754;DHT22;32500;50.620;3.400;2023-04-03T06:33:38;12.60;73.90
46754;DHT22;32500;50.620;3.400;2023-04-03T06:36:05;12.70;74.30
46754;DHT22;32500;50.620;3.400;2023-04-03T06:38:31;12.70;73.80
46754;DHT22;32500;50.620;3.400;2023-04-03T06:40:56;12.70;73.70
46754;DHT22;32500;50.620;3.400;2023-04-03T06:43:22;12.70;73.90
46754;DHT22;32500;50.620;3.400;2023-04-03T06:45:48;12.70;73.40
46754;DHT22;32500;50.620;3.400;2023-04-03T06:48:13;12.70;74.00
46754;DHT22;32500;50.620;3.400;2023-04-03T06:50:39;12.70;73.80
46754;DHT22;32500;50.620;3.400;2023-04-03T06:53:07;12.70;73.60
46754;DHT22;32500;50.620;3.400;2023-04-03T06:55:33;12.70;73.70
46754;DHT22;32500;50.620;3.400;2023-04-03T06:57:59;12.70;73.70
46754;DHT22;32500;50.620;3.400;2023-04-03T07:00:24;12.70;73.60
46754;DHT22;32500;50.620;3.400;2023-04-03T07:02:50;12.70;73.40
46754;DHT22;32500;50.620;3.400;2023-04-03T07:05:16;12.70;73.40
46754;DHT22;32500;50.620;3.400;2023-04-03T07:07:42;12.70;73.40
46754;DHT22;32500;50.620;3.400;2023-04-03T07:10:08;12.80;73.40
46754;DHT22;32500;50.620;3.400;2023-04-03T07:12:33;12.80;73.40
46754;DHT22;32500;50.620;3.400;2023-04-03T07:14:59;12.80;73.30
46754;DHT22;32500;50.620;3.400;2023-04-03T07:17:24;12.70;73.40
46754;DHT22;32500;50.620;3.400;2023-04-03T07:19:50;12.70;73.60
46754;DHT22;32500;50.620;3.400;2023-04-03T07:22:16;12.80;73.20
46754;DHT22;32500;50.620;3.400;2023-04-03T07:24:41;12.80;73.10
46754;DHT22;32500;50.620;3.400;2023-04-03T07:27:07;12.80;73.10
46754;DHT22;32500;50.620;3.400;2023-04-03T07:29:33;12.80;73.00
46754;DHT22;32500;50.620;3.400;2023-04-03T07:31:59;12.80;73.00
46754;DHT22;32500;50.620;3.400;2023-04-03T07:34:25;12.90;72.80
46754;DHT22;32500;50.620;3.400;2023-04-03T07:36:50;12.90;72.90
46754;DHT22;32500;50.620;3.400;2023-04-03T07:39:16;12.90;72.80
46754;DHT22;32500;50.620;3.400;2023-04-03T07:41:41;12.90;72.50
46754;DHT22;32500;50.620;3.400;2023-04-03T07:44:07;13.00;72.50
46754;DHT22;32500;50.620;3.400;2023-04-03T07:46:35;12.90;72.30
46754;DHT22;32500;50.620;3.400;2023-04-03T07:49:00;12.90;73.10
46754;DHT22;32500;50.620;3.400;2023-04-03T07:51:26;12.90;72.30
46754;DHT22;32500;50.620;3.400;2023-04-03T07:53:52;13.00;72.10
46754;DHT22;32500;50.620;3.400;2023-04-03T07:56:17;13.00;72.10
46754;DHT22;32500;50.620;3.400;2023-04-03T07:58:43;13.00;72.10
46754;DHT22;32500;50.620;3.400;2023-04-03T08:01:09;13.00;72.00
46754;DHT22;32500;50.620;3.400;2023-04-03T08:03:34;13.00;72.00
46754;DHT22;32500;50.620;3.400;2023-04-03T08:06:03;13.10;71.80
46754;DHT22;32500;50.620;3.400;2023-04-03T08:08:29;13.10;71.50
46754;DHT22;32500;50.620;3.400;2023-04-03T08:10:55;13.10;71.50
46754;DHT22;32500;50.620;3.400;2023-04-03T08:13:21;13.10;71.50
46754;DHT22;32500;50.620;3.400;2023-04-03T08:15:46;13.20;71.40
46754;DHT22;32500;50.620;3.400;2023-04-03T08:18:12;13.10;71.40
46754;DHT22;32500;50.620;3.400;2023-04-03T08:20:38;13.20;71.60
46754;DHT22;32500;50.620;3.400;2023-04-03T08:23:06;13.10;71.50
46754;DHT22;32500;50.620;3.400;2023-04-03T08:25:31;13.10;71.50
46754;DHT22;32500;50.620;3.400;2023-04-03T08:27:57;13.10;71.50
46754;DHT22;32500;50.620;3.400;2023-04-03T08:30:22;13.20;71.50
46754;DHT22;32500;50.620;3.400;2023-04-03T08:32:48;13.20;71.40
46754;DHT22;32500;50.620;3.400;2023-04-03T08:37:43;13.20;71.30
46754;DHT22;32500;50.620;3.400;2023-04-03T08:40:12;13.20;71.30
46754;DHT22;32500;50.620;3.400;2023-04-03T08:50:17;13.40;71.20
46754;DHT22;32500;50.620;3.400;2023-04-03T08:52:47;13.30;71.10
46754;DHT22;32500;50.620;3.400;2023-04-03T08:57:43;13.30;71.20
46754;DHT22;32500;50.620;3.400;2023-04-03T09:00:20;13.40;71.20
46754;DHT22;32500;50.620;3.400;2023-04-03T09:02:47;13.40;71.00
46754;DHT22;32500;50.620;3.400;2023-04-03T09:05:14;13.50;71.00
46754;DHT22;32500;50.620;3.400;2023-04-03T09:07:44;13.50;70.90
46754;DHT22;32500;50.620;3.400;2023-04-03T09:10:12;13.50;71.00
46754;DHT22;32500;50.620;3.400;2023-04-03T09:12:39;13.60;71.00
46754;DHT22;32500;50.620;3.400;2023-04-03T09:25:44;13.60;71.60
46754;DHT22;32500;50.620;3.400;2023-04-03T09:28:10;13.60;71.60
46754;DHT22;32500;50.620;3.400;2023-04-03T09:30:35;13.70;71.70
46754;DHT22;32500;50.620;3.400;2023-04-03T09:33:02;13.70;71.50
46754;DHT22;32500;50.620;3.400;2023-04-03T09:35:28;13.70;71.50
46754;DHT22;32500;50.620;3.400;2023-04-03T09:37:59;13.80;71.60
46754;DHT22;32500;50.620;3.400;2023-04-03T09:42:51;13.80;71.60
46754;DHT22;32500;50.620;3.400;2023-04-03T09:45:21;13.80;72.30
46754;DHT22;32500;50.620;3.400;2023-04-03T09:47:48;13.90;71.70
46754;DHT22;32500;50.620;3.400;2023-04-03T09:52:44;13.90;71.70
46754;DHT22;32500;50.620;3.400;2023-04-03T09:55:17;13.90;71.60
46754;DHT22;32500;50.620;3.400;2023-04-03T09:57:43;14.00;71.50
46754;DHT22;32500;50.620;3.400;2023-04-03T10:00:23;14.00;71.60
46754;DHT22;32500;50.620;3.400;2023-04-03T10:02:53;14.00;71.60
46754;DHT22;32500;50.620;3.400;2023-04-03T10:05:31;14.00;71.60
46754;DHT22;32500;50.620;3.400;2023-04-03T10:08:07;14.00;71.60
46754;DHT22;32500;50.620;3.400;2023-04-03T10:10:33;14.00;71.60
46754;DHT22;32500;50.620;3.400;2023-04-03T10:13:06;14.10;71.60
46754;DHT22;32500;50.620;3.400;2023-04-03T10:15:36;14.10;71.50
46754;DHT22;32500;50.620;3.400;2023-04-03T10:18:06;14.10;71.60
46754;DHT22;32500;50.620;3.400;2023-04-03T10:20:37;14.10;71.60
46754;DHT22;32500;50.620;3.400;2023-04-03T10:43:40;14.30;71.30
46754;DHT22;32500;50.620;3.400;2023-04-03T10:46:12;14.40;71.20
46754;DHT22;32500;50.620;3.400;2023-04-03T10:56:18;14.50;71.10
46754;DHT22;32500;50.620;3.400;2023-04-03T10:58:44;14.50;71.10
46754;DHT22;32500;50.620;3.400;2023-04-03T11:01:16;14.60;71.10
46754;DHT22;32500;50.620;3.400;2023-04-03T11:03:45;14.60;71.00
46754;DHT22;32500;50.620;3.400;2023-04-03T11:06:12;14.60;71.00
46754;DHT22;32500;50.620;3.400;2023-04-03T11:08:48;14.60;70.90
46754;DHT22;32500;50.620;3.400;2023-04-03T11:11:19;14.60;70.70
46754;DHT22;32500;50.620;3.400;2023-04-03T11:16:25;14.70;70.70
46754;DHT22;32500;50.620;3.400;2023-04-03T11:19:14;14.70;70.50
46754;DHT22;32500;50.620;3.400;2023-04-03T11:21:39;14.70;70.70
46754;DHT22;32500;50.620;3.400;2023-04-03T11:24:09;14.70;70.60
46754;DHT22;32500;50.620;3.400;2023-04-03T11:26:38;14.70;70.50
46754;DHT22;32500;50.620;3.400;2023-04-03T11:29:10;14.80;70.50
46754;DHT22;32500;50.620;3.400;2023-04-03T11:36:33;14.80;70.40
46754;DHT22;32500;50.620;3.400;2023-04-03T11:39:02;14.90;70.40
46754;DHT22;32500;50.620;3.400;2023-04-03T11:41:32;14.90;70.20
46754;DHT22;32500;50.620;3.400;2023-04-03T11:43:59;14.90;70.10
46754;DHT22;32500;50.620;3.400;2023-04-03T11:49:50;15.00;70.00
46754;DHT22;32500;50.620;3.400;2023-04-03T11:51:56;15.00;70.00
46754;DHT22;32500;50.620;3.400;2023-04-03T11:54:35;15.00;69.90
46754;DHT22;32500;50.620;3.400;2023-04-03T11:57:23;15.00;69.70
46754;DHT22;32500;50.620;3.400;2023-04-03T11:59:47;15.10;69.80
46754;DHT22;32500;50.620;3.400;2023-04-03T12:05:42;15.10;69.50
46754;DHT22;32500;50.620;3.400;2023-04-03T12:07:43;15.10;69.40
46754;DHT22;32500;50.620;3.400;2023-04-03T12:10:15;15.10;69.40
46754;DHT22;32500;50.620;3.400;2023-04-03T12:12:41;15.20;69.60
46754;DHT22;32500;50.620;3.400;2023-04-03T12:18:00;15.20;69.30
46754;DHT22;32500;50.620;3.400;2023-04-03T12:23:27;15.20;69.30
46754;DHT22;32500;50.620;3.400;2023-04-03T12:26:00;15.30;69.20
46754;DHT22;32500;50.620;3.400;2023-04-03T12:28:26;15.30;69.10
46754;DHT22;32500;50.620;3.400;2023-04-03T12:30:52;15.40;69.10
46754;DHT22;32500;50.620;3.400;2023-04-03T12:36:07;15.40;68.80
46754;DHT22;32500;50.620;3.400;2023-04-03T12:38:37;15.40;68.80
46754;DHT22;32500;50.620;3.400;2023-04-03T12:41:18;15.40;68.70
46754;DHT22;32500;50.620;3.400;2023-04-03T12:46:24;15.50;68.30
46754;DHT22;32500;50.620;3.400;2023-04-03T12:48:53;15.50;68.20
46754;DHT22;32500;50.620;3.400;2023-04-03T12:51:34;15.50;68.20
46754;DHT22;32500;50.620;3.400;2023-04-03T12:54:03;15.50;68.00
46754;DHT22;32500;50.620;3.400;2023-04-03T12:56:30;15.50;67.90
46754;DHT22;32500;50.620;3.400;2023-04-03T13:01:36;15.60;68.20
46754;DHT22;32500;50.620;3.400;2023-04-03T13:04:02;15.70;68.00
46754;DHT22;32500;50.620;3.400;2023-04-03T13:06:33;15.70;68.00
46754;DHT22;32500;50.620;3.400;2023-04-03T13:09:00;15.70;68.10
46754;DHT22;32500;50.620;3.400;2023-04-03T13:12:00;15.70;67.80
46754;DHT22;32500;50.620;3.400;2023-04-03T13:14:19;15.80;67.60
46754;DHT22;32500;50.620;3.400;2023-04-03T13:19:22;15.80;67.50
46754;DHT22;32500;50.620;3.400;2023-04-03T13:21:47;15.80;67.40
46754;DHT22;32500;50.620;3.400;2023-04-03T13:24:13;15.80;67.40
46754;DHT22;32500;50.620;3.400;2023-04-03T13:26:39;15.90;67.30
46754;DHT22;32500;50.620;3.400;2023-04-03T13:29:06;15.90;67.30
46754;DHT22;32500;50.620;3.400;2023-04-03T13:31:33;15.90;67.40
46754;DHT22;32500;50.620;3.400;2023-04-03T13:34:12;16.00;67.40
46754;DHT22;32500;50.620;3.400;2023-04-03T13:36:46;15.90;67.40
46754;DHT22;32500;50.620;3.400;2023-04-03T13:39:24;15.90;68.00
46754;DHT22;32500;50.620;3.400;2023-04-03T13:41:53;15.80;68.50
46754;DHT22;32500;50.620;3.400;2023-04-03T13:46:51;15.80;68.90
46754;DHT22;32500;50.620;3.400;2023-04-03T13:51:55;15.80;68.90
46754;DHT22;32500;50.620;3.400;2023-04-03T13:54:32;15.70;69.00
46754;DHT22;32500;50.620;3.400;2023-04-03T13:56:58;15.70;69.00
46754;DHT22;32500;50.620;3.400;2023-04-03T13:59:28;15.70;69.30
46754;DHT22;32500;50.620;3.400;2023-04-03T14:04:31;15.70;69.20
46754;DHT22;32500;50.620;3.400;2023-04-03T14:06:57;15.70;69.20
46754;DHT22;32500;50.620;3.400;2023-04-03T14:09:24;15.70;69.20
46754;DHT22;32500;50.620;3.400;2023-04-03T14:11:52;15.70;69.00
46754;DHT22;32500;50.620;3.400;2023-04-03T14:14:22;15.80;69.00
46754;DHT22;32500;50.620;3.400;2023-04-03T14:16:52;15.70;68.90
46754;DHT22;32500;50.620;3.400;2023-04-03T14:19:22;15.80;69.00
46754;DHT22;32500;50.620;3.400;2023-04-03T14:21:48;15.70;69.00
46754;DHT22;32500;50.620;3.400;2023-04-03T14:24:16;15.70;68.90
46754;DHT22;32500;50.620;3.400;2023-04-03T14:26:42;15.70;69.00
46754;DHT22;32500;50.620;3.400;2023-04-03T14:29:09;15.70;69.20
46754;DHT22;32500;50.620;3.400;2023-04-03T14:31:35;15.70;69.30
46754;DHT22;32500;50.620;3.400;2023-04-03T14:34:01;15.70;69.00
46754;DHT22;32500;50.620;3.400;2023-04-03T14:36:27;15.70;69.20
46754;DHT22;32500;50.620;3.400;2023-04-03T14:38:53;15.70;69.30
46754;DHT22;32500;50.620;3.400;2023-04-03T14:41:21;15.80;69.30
46754;DHT22;32500;50.620;3.400;2023-04-03T14:43:47;15.70;69.30
46754;DHT22;32500;50.620;3.400;2023-04-03T14:46:15;15.70;69.20
46754;DHT22;32500;50.620;3.400;2023-04-03T14:48:42;15.80;69.20
46754;DHT22;32500;50.620;3.400;2023-04-03T14:51:09;15.70;69.10
46754;DHT22;32500;50.620;3.400;2023-04-03T14:53:35;15.70;69.30
46754;DHT22;32500;50.620;3.400;2023-04-03T14:56:02;15.70;69.20
46754;DHT22;32500;50.620;3.400;2023-04-03T14:58:27;15.70;69.30
46754;DHT22;32500;50.620;3.400;2023-04-03T15:00:53;15.80;70.00
46754;DHT22;32500;50.620;3.400;2023-04-03T15:03:20;15.80;69.10
46754;DHT22;32500;50.620;3.400;2023-04-03T15:05:46;15.80;69.30
46754;DHT22;32500;50.620;3.400;2023-04-03T15:08:22;15.80;69.10
46754;DHT22;32500;50.620;3.400;2023-04-03T15:10:49;15.80;69.10
46754;DHT22;32500;50.620;3.400;2023-04-03T15:13:15;15.80;69.10
46754;DHT22;32500;50.620;3.400;2023-04-03T15:15:41;15.80;69.10
46754;DHT22;32500;50.620;3.400;2023-04-03T15:18:06;15.80;69.20
46754;DHT22;32500;50.620;3.400;2023-04-03T15:20:32;15.70;69.30
46754;DHT22;32500;50.620;3.400;2023-04-03T15:22:59;15.80;69.40
46754;DHT22;32500;50.620;3.400;2023-04-03T15:25:28;15.80;69.50
46754;DHT22;32500;50.620;3.400;2023-04-03T15:27:54;15.80;70.10
46754;DHT22;32500;50.620;3.400;2023-04-03T15:30:20;15.80;69.30
46754;DHT22;32500;50.620;3.400;2023-04-03T15:32:46;15.80;69.30
46754;DHT22;32500;50.620;3.400;2023-04-03T15:35:12;15.80;69.40
46754;DHT22;32500;50.620;3.400;2023-04-03T15:37:38;15.70;69.50
46754;DHT22;32500;50.620;3.400;2023-04-03T15:40:04;15.80;69.10
46754;DHT22;32500;50.620;3.400;2023-04-03T15:42:29;15.80;69.30
46754;DHT22;32500;50.620;3.400;2023-04-03T15:44:55;15.70;69.60
46754;DHT22;32500;50.620;3.400;2023-04-03T15:47:20;15.70;69.10
46754;DHT22;32500;50.620;3.400;2023-04-03T15:49:46;15.80;68.90
46754;DHT22;32500;50.620;3.400;2023-04-03T15:52:11;15.70;68.70
46754;DHT22;32500;50.620;3.400;2023-04-03T15:54:37;15.80;68.40
46754;DHT22;32500;50.620;3.400;2023-04-03T15:57:02;15.80;68.10
46754;DHT22;32500;50.620;3.400;2023-04-03T15:59:28;15.80;67.70
46754;DHT22;32500;50.620;3.400;2023-04-03T16:01:56;15.70;67.40
46754;DHT22;32500;50.620;3.400;2023-04-03T16:04:21;15.70;67.30
46754;DHT22;32500;50.620;3.400;2023-04-03T16:06:48;15.90;67.00
46754;DHT22;32500;50.620;3.400;2023-04-03T16:09:14;15.90;66.50
46754;DHT22;32500;50.620;3.400;2023-04-03T16:11:39;15.90;66.40
46754;DHT22;32500;50.620;3.400;2023-04-03T16:14:06;15.80;67.20
46754;DHT22;32500;50.620;3.400;2023-04-03T16:16:31;15.90;66.20
46754;DHT22;32500;50.620;3.400;2023-04-03T16:18:57;15.80;66.10
46754;DHT22;32500;50.620;3.400;2023-04-03T16:21:23;15.90;66.00
46754;DHT22;32500;50.620;3.400;2023-04-03T16:23:49;15.90;65.90
46754;DHT22;32500;50.620;3.400;2023-04-03T16:26:14;15.80;65.80
46754;DHT22;32500;50.620;3.400;2023-04-03T16:28:40;15.80;65.90
46754;DHT22;32500;50.620;3.400;2023-04-03T16:31:06;15.80;65.70
46754;DHT22;32500;50.620;3.400;2023-04-03T16:33:32;15.80;65.70
46754;DHT22;32500;50.620;3.400;2023-04-03T16:35:58;15.80;65.40
46754;DHT22;32500;50.620;3.400;2023-04-03T16:38:23;15.80;65.10
46754;DHT22;32500;50.620;3.400;2023-04-03T16:40:49;15.80;65.10
46754;DHT22;32500;50.620;3.400;2023-04-03T16:43:15;15.70;65.50
46754;DHT22;32500;50.620;3.400;2023-04-03T16:45:41;15.70;65.30
46754;DHT22;32500;50.620;3.400;2023-04-03T16:48:06;15.60;65.20
46754;DHT22;32500;50.620;3.400;2023-04-03T16:50:32;15.50;65.50
46754;DHT22;32500;50.620;3.400;2023-04-03T16:52:58;15.60;65.20
46754;DHT22;32500;50.620;3.400;2023-04-03T16:55:23;15.70;65.10
46754;DHT22;32500;50.620;3.400;2023-04-03T16:57:49;15.70;64.60
46754;DHT22;32500;50.620;3.400;2023-04-03T17:00:15;15.70;64.50
46754;DHT22;32500;50.620;3.400;2023-04-03T17:02:40;15.80;64.20
46754;DHT22;32500;50.620;3.400;2023-04-03T17:05:06;15.70;64.30
46754;DHT22;32500;50.620;3.400;2023-04-03T17:07:32;15.70;64.00
46754;DHT22;32500;50.620;3.400;2023-04-03T17:09:59;15.60;64.00
46754;DHT22;32500;50.620;3.400;2023-04-03T17:12:25;15.60;63.70